Terminal Aerodrome Forecast
Issued by NWS Billings, MT

Home | Current Version | Previous Version | Graphics & Text | Print | Product List | Glossary On
Versions: 1 2 3 4 5 6 7 8 9 10 11 12 13 14 15 16 17 18 19 20 21 22 23 24
568
FTUS45 KBYZ 181125
TAFMLS
TAF
KMLS 181125Z 1812/1912 VRB06KT P6SM SCT080
     FM181500 32011KT P6SM SCT200
     FM181800 32017G25KT P6SM SCT200
     FM182300 VRB05KT P6SM SKC
     FM190700 26015G25KT P6SM FEW110 SCT250=

USA.gov is the U.S. government's official web portal to all federal, state and local government web resources and services.